Time;durP1;ratioP1;P1;durP2;ratioP2;P2;SDS_P1;SDS_P2;PMS_P1;PMS_P2;Temp;Humidity;BMP_temperature;BMP_pressure;BME280_temperature;BME280_humidity;BME280_pressure;Samples;Min_cycle;Max_cycle;Signal;HPM_P1;HPM_P2
2022/08/30 00:01:28;;;;;;;11.10;6.22;;;;;;;16.04;100.00;101857.53;5204024;28;20079;-69
2022/08/30 00:04:00;;;;;;;11.93;6.00;;;;;;;16.10;100.00;101859.69;5204919;28;20394;-70
2022/08/30 00:06:31;;;;;;;10.07;6.10;;;;;;;16.05;100.00;101852.03;5211159;28;20102;-69
2022/08/30 00:09:03;;;;;;;10.95;6.45;;;;;;;16.01;100.00;101839.81;5225409;28;20028;-69
2022/08/30 00:11:34;;;;;;;10.13;7.35;;;;;;;15.92;100.00;101850.50;5203160;28;20069;-70
2022/08/30 00:14:05;;;;;;;9.75;6.18;;;;;;;15.99;100.00;101848.97;5202900;28;20482;-69
2022/08/30 00:16:37;;;;;;;8.57;6.60;;;;;;;15.89;100.00;101848.88;5205359;28;20483;-70
2022/08/30 00:19:08;;;;;;;13.10;7.07;;;;;;;15.86;100.00;101850.00;5201364;28;20157;-70
2022/08/30 00:21:39;;;;;;;9.95;5.70;;;;;;;15.88;100.00;101850.75;5200846;28;20026;-69
2022/08/30 00:24:11;;;;;;;10.55;6.55;;;;;;;15.80;100.00;101847.84;5197527;28;20036;-69
2022/08/30 00:26:42;;;;;;;12.93;6.65;;;;;;;15.77;100.00;101856.16;5201803;28;20038;-70
2022/08/30 00:29:13;;;;;;;11.88;6.70;;;;;;;15.75;100.00;101854.56;5196546;28;20029;-69
2022/08/30 00:31:45;;;;;;;9.38;6.22;;;;;;;15.74;100.00;101855.53;5199022;28;20025;-69
2022/08/30 00:34:16;;;;;;;11.43;5.80;;;;;;;15.69;100.00;101855.91;5200550;28;20034;-69
2022/08/30 00:36:48;;;;;;;11.65;6.55;;;;;;;15.72;100.00;101850.25;5201332;28;20116;-69
2022/08/30 00:39:19;;;;;;;11.23;5.85;;;;;;;15.63;100.00;101856.41;5206580;28;20029;-69
2022/08/30 00:41:50;;;;;;;9.48;6.38;;;;;;;15.72;100.00;101857.47;5197913;28;20130;-69
2022/08/30 00:44:22;;;;;;;11.30;6.50;;;;;;;15.66;100.00;101857.00;5198527;28;20034;-69
2022/08/30 00:46:54;;;;;;;11.57;5.82;;;;;;;15.65;100.00;101860.69;5206712;28;20384;-69
2022/08/30 00:49:25;;;;;;;11.75;5.97;;;;;;;15.74;100.00;101855.53;5206954;28;20052;-70
2022/08/30 00:51:57;;;;;;;10.23;6.75;;;;;;;15.77;100.00;101863.38;5205717;28;20581;-69
2022/08/30 00:54:30;;;;;;;12.10;6.18;;;;;;;15.74;100.00;101858.22;5224641;28;20503;-68
2022/08/30 00:57:03;;;;;;;9.50;5.85;;;;;;;15.80;100.00;101855.03;5210175;28;20492;-69
2022/08/30 00:59:34;;;;;;;10.23;6.20;;;;;;;15.83;100.00;101862.88;5214372;28;20539;-69
2022/08/30 01:02:06;;;;;;;11.20;6.15;;;;;;;15.80;100.00;101863.97;5206875;28;20032;-69
2022/08/30 01:04:41;;;;;;;9.52;6.25;;;;;;;15.86;100.00;101854.53;5214722;28;20030;-69
2022/08/30 01:07:13;;;;;;;10.80;6.20;;;;;;;15.88;100.00;101852.59;5216282;28;20026;-69
2022/08/30 01:09:44;;;;;;;9.25;6.32;;;;;;;15.90;100.00;101863.19;5206382;28;20121;-68
2022/08/30 01:12:16;;;;;;;8.05;5.93;;;;;;;15.93;100.00;101854.88;5205681;28;20082;-69
2022/08/30 01:14:49;;;;;;;9.32;6.15;;;;;;;15.96;100.00;101860.03;5205806;28;20022;-69
2022/08/30 01:17:21;;;;;;;10.23;5.80;;;;;;;15.97;100.00;101872.47;5203170;28;20072;-69
2022/08/30 01:19:57;;;;;;;9.73;5.97;;;;;;;16.00;100.00;101866.84;5211676;28;20059;-69
2022/08/30 01:22:49;;;;;;;9.88;5.97;;;;;;;16.01;100.00;101873.94;5199210;28;20034;-69
2022/08/30 01:25:28;;;;;;;11.05;5.95;;;;;;;15.99;100.00;101867.81;5200602;28;20116;-68
2022/08/30 01:28:04;;;;;;;9.73;5.88;;;;;;;15.97;100.00;101856.31;5198895;28;20740;-69
2022/08/30 01:30:41;;;;;;;8.25;5.68;;;;;;;15.93;100.00;101860.25;5206314;28;20037;-69
2022/08/30 01:33:13;;;;;;;12.32;5.97;;;;;;;15.97;100.00;101861.72;5202646;28;20500;-69
2022/08/30 01:35:59;;;;;;;8.85;6.00;;;;;;;15.90;100.00;101863.19;5208841;28;20059;-68
2022/08/30 01:38:36;;;;;;;10.48;5.82;;;;;;;15.87;100.00;101862.47;5212824;28;20034;-69
2022/08/30 01:41:14;;;;;;;9.52;5.85;;;;;;;15.80;100.00;101858.59;5199804;28;20501;-68
2022/08/30 01:43:46;;;;;;;10.13;5.82;;;;;;;15.86;100.00;101863.47;5210797;28;20038;-69
2022/08/30 01:46:19;;;;;;;9.93;5.88;;;;;;;15.77;100.00;101866.91;5207001;28;20037;-69
2022/08/30 01:48:52;;;;;;;9.63;6.27;;;;;;;15.77;100.00;101874.13;5214000;28;20392;-69
2022/08/30 01:51:26;;;;;;;9.52;5.70;;;;;;;15.72;100.00;101873.63;5213009;28;20037;-70
2022/08/30 01:53:58;;;;;;;9.45;5.93;;;;;;;15.76;100.00;101867.91;5214461;28;20021;-68
2022/08/30 01:56:29;;;;;;;8.75;5.53;;;;;;;15.69;100.00;101862.13;5212712;28;20047;-69
2022/08/30 01:59:01;;;;;;;9.85;6.45;;;;;;;15.74;100.00;101867.16;5209372;28;20042;-68
2022/08/30 02:01:35;;;;;;;10.90;5.88;;;;;;;15.69;100.00;101858.59;5196406;28;20057;-69
2022/08/30 02:04:08;;;;;;;11.02;6.05;;;;;;;15.68;100.00;101857.72;5213200;28;21814;-69
2022/08/30 02:06:40;;;;;;;11.10;5.78;;;;;;;15.71;100.00;101859.31;5210580;28;20034;-69
2022/08/30 02:09:12;;;;;;;9.75;6.40;;;;;;;15.67;100.00;101849.78;5223667;28;20033;-69
2022/08/30 02:11:43;;;;;;;9.80;6.10;;;;;;;15.62;100.00;101857.38;5196837;28;20054;-69
2022/08/30 02:14:15;;;;;;;11.13;6.70;;;;;;;15.59;100.00;101850.44;5202147;28;20148;-69
2022/08/30 02:16:47;;;;;;;11.98;6.78;;;;;;;15.59;100.00;101857.63;5199103;28;20022;-69
2022/08/30 02:19:18;;;;;;;10.80;6.13;;;;;;;15.56;100.00;101860.56;5200726;28;20153;-69
2022/08/30 02:21:49;;;;;;;9.20;6.28;;;;;;;15.59;100.00;101854.94;5218306;28;20029;-69
2022/08/30 02:24:21;;;;;;;10.02;6.20;;;;;;;15.53;100.00;101850.91;5196413;28;20026;-69
2022/08/30 02:26:53;;;;;;;8.00;6.03;;;;;;;15.62;100.00;101849.31;5201346;28;20141;-69
2022/08/30 02:29:24;;;;;;;10.98;6.53;;;;;;;15.53;100.00;101856.28;5202959;28;20568;-69
2022/08/30 02:31:55;;;;;;;8.80;6.50;;;;;;;15.49;100.00;101853.00;5206746;28;20048;-70
2022/08/30 02:34:27;;;;;;;12.35;7.30;;;;;;;15.47;100.00;101844.22;5211847;28;20082;-69
2022/08/30 02:36:58;;;;;;;9.10;6.63;;;;;;;15.48;100.00;101848.59;5211804;28;20067;-69
2022/08/30 02:39:29;;;;;;;11.35;7.47;;;;;;;15.54;100.00;101841.88;5208826;28;20079;-69
2022/08/30 02:42:01;;;;;;;8.45;6.95;;;;;;;15.43;100.00;101842.72;5208205;28;20044;-70
2022/08/30 02:44:32;;;;;;;11.32;6.88;;;;;;;15.48;100.00;101845.91;5203336;28;20026;-69
2022/08/30 02:47:03;;;;;;;9.73;7.03;;;;;;;15.47;100.00;101846.91;5199988;28;20026;-70
2022/08/30 02:49:35;;;;;;;10.35;6.72;;;;;;;15.54;100.00;101841.88;5203414;28;20053;-69
2022/08/30 02:52:06;;;;;;;9.77;7.15;;;;;;;15.52;100.00;101838.44;5199082;28;20033;-69
2022/08/30 02:54:37;;;;;;;8.43;6.85;;;;;;;15.56;100.00;101836.38;5206115;28;20030;-69
2022/08/30 02:57:09;;;;;;;10.25;6.65;;;;;;;15.47;100.00;101836.16;5209675;28;20042;-70
2022/08/30 02:59:42;;;;;;;8.18;6.75;;;;;;;15.40;100.00;101834.94;5218899;28;20531;-69
2022/08/30 03:02:14;;;;;;;8.48;7.03;;;;;;;15.35;100.00;101831.75;5205503;28;20460;-69
2022/08/30 03:04:45;;;;;;;10.07;7.18;;;;;;;15.35;100.00;101829.06;5209672;28;20026;-69
2022/08/30 03:07:17;;;;;;;9.50;7.47;;;;;;;15.26;100.00;101830.69;5210883;28;20039;-69
2022/08/30 03:09:48;;;;;;;9.15;7.15;;;;;;;15.28;100.00;101826.03;5214035;28;20033;-69
2022/08/30 03:12:20;;;;;;;10.32;7.57;;;;;;;15.32;100.00;101828.44;5204646;28;20063;-69
2022/08/30 03:14:52;;;;;;;8.45;7.55;;;;;;;15.28;100.00;101826.03;5228531;28;21506;-69
2022/08/30 03:17:24;;;;;;;10.93;7.30;;;;;;;15.27;100.00;101823.47;5208923;28;20386;-69
2022/08/30 03:19:57;;;;;;;11.07;7.40;;;;;;;15.25;100.00;101826.25;5217050;28;20660;-70
2022/08/30 03:22:28;;;;;;;11.00;8.10;;;;;;;15.27;100.00;101829.69;5224240;28;20042;-69
2022/08/30 03:25:00;;;;;;;10.90;7.40;;;;;;;15.26;100.00;101836.06;5196952;28;20046;-69
2022/08/30 03:27:31;;;;;;;10.05;7.65;;;;;;;15.34;100.00;101831.88;5196492;28;20471;-69
2022/08/30 03:30:04;;;;;;;9.88;7.10;;;;;;;15.38;100.00;101839.56;5194014;28;20597;-69
2022/08/30 03:32:35;;;;;;;11.55;7.32;;;;;;;15.36;100.00;101830.78;5206381;28;20187;-69
2022/08/30 03:35:07;;;;;;;8.15;6.72;;;;;;;15.37;100.00;101840.53;5214244;28;20033;-69
2022/08/30 03:37:39;;;;;;;12.02;7.57;;;;;;;15.36;100.00;101835.28;5203634;28;21885;-69
2022/08/30 03:40:13;;;;;;;9.32;7.43;;;;;;;15.39;100.00;101826.97;5210117;28;20034;-70
2022/08/30 03:42:45;;;;;;;12.98;8.38;;;;;;;15.35;100.00;101820.16;5213816;28;20433;-69
2022/08/30 03:45:17;;;;;;;11.20;8.00;;;;;;;15.35;100.00;101831.75;5198617;28;20387;-69
2022/08/30 03:47:49;;;;;;;11.30;7.53;;;;;;;15.33;100.00;101833.72;5219014;28;20494;-69
2022/08/30 03:50:20;;;;;;;9.50;8.00;;;;;;;15.28;100.00;101830.53;5225509;28;20155;-69
2022/08/30 03:52:51;;;;;;;10.23;7.75;;;;;;;15.26;100.00;101835.16;5207466;28;20126;-69
2022/08/30 03:55:23;;;;;;;9.85;7.57;;;;;;;15.23;100.00;101828.22;5203675;28;20498;-69
2022/08/30 03:57:55;;;;;;;9.40;7.38;;;;;;;15.27;100.00;101835.06;5213681;28;20042;-69
2022/08/30 04:00:26;;;;;;;9.00;8.10;;;;;;;15.31;100.00;101832.97;5229659;28;20033;-69
2022/08/30 04:02:58;;;;;;;10.90;8.00;;;;;;;15.34;100.00;101834.56;5217009;28;20048;-69
2022/08/30 04:05:29;;;;;;;9.73;7.88;;;;;;;15.31;100.00;101830.28;5200665;28;20026;-69
2022/08/30 04:08:01;;;;;;;11.85;7.43;;;;;;;15.23;100.00;101827.38;5208399;28;20083;-69
2022/08/30 04:10:33;;;;;;;11.98;8.10;;;;;;;15.22;100.00;101825.66;5213243;28;20033;-69
2022/08/30 04:13:04;;;;;;;8.95;7.95;;;;;;;15.21;100.00;101830.19;5209785;28;20030;-70
2022/08/30 04:15:35;;;;;;;10.07;7.90;;;;;;;15.21;100.00;101835.56;5216112;28;20434;-69
2022/08/30 04:18:07;;;;;;;10.38;8.00;;;;;;;15.12;100.00;101828.22;5226581;28;20061;-69
2022/08/30 04:20:38;;;;;;;11.75;8.50;;;;;;;15.12;100.00;101824.69;5209926;28;20029;-69
2022/08/30 04:23:10;;;;;;;11.90;8.88;;;;;;;15.06;100.00;101828.72;5214415;28;20492;-69
2022/08/30 04:25:42;;;;;;;11.15;8.73;;;;;;;15.01;100.00;101837.13;5211170;28;20034;-70
2022/08/30 04:28:14;;;;;;;10.02;8.30;;;;;;;15.04;100.00;101836.06;5215101;28;20019;-70
2022/08/30 04:30:45;;;;;;;10.05;8.82;;;;;;;15.00;100.00;101831.91;5212873;28;20029;-69
2022/08/30 04:33:17;;;;;;;10.07;9.05;;;;;;;14.97;100.00;101843.72;5202145;28;20034;-69
2022/08/30 04:35:48;;;;;;;11.02;9.45;;;;;;;15.09;100.00;101840.09;5208825;28;20033;-69
2022/08/30 04:38:20;;;;;;;11.23;8.50;;;;;;;15.10;100.00;101839.09;5204144;28;20499;-69
2022/08/30 04:40:51;;;;;;;10.82;8.93;;;;;;;15.10;100.00;101836.41;5201147;28;20030;-69
2022/08/30 04:43:25;;;;;;;10.82;9.68;;;;;;;15.10;100.00;101840.94;5203030;28;20104;-69
2022/08/30 04:45:56;;;;;;;11.48;9.20;;;;;;;15.13;100.00;101846.06;5206129;28;20014;-69
2022/08/30 04:48:28;;;;;;;10.60;9.50;;;;;;;15.16;100.00;101844.97;5202264;28;20038;-69
2022/08/30 04:51:03;;;;;;;11.75;9.25;;;;;;;15.20;100.00;101844.59;5203418;28;20088;-69
2022/08/30 04:53:34;;;;;;;12.80;9.85;;;;;;;15.09;100.00;101856.22;5204359;28;20058;-69
2022/08/30 04:56:11;;;;;;;12.00;8.73;;;;;;;15.10;100.00;101852.53;5205147;28;20048;-69
2022/08/30 04:58:45;;;;;;;11.35;8.65;;;;;;;15.04;100.00;101855.72;5205220;28;20202;-69
2022/08/30 05:01:22;;;;;;;11.18;9.60;;;;;;;15.06;100.00;101858.28;5215278;28;20030;-69
2022/08/30 05:03:54;;;;;;;13.13;9.93;;;;;;;14.99;100.00;101855.22;5223378;28;20033;-69
2022/08/30 05:06:29;;;;;;;11.32;9.10;;;;;;;15.01;100.00;101853.25;5224008;28;20034;-69
2022/08/30 05:09:01;;;;;;;12.15;10.27;;;;;;;14.96;100.00;101852.78;5208778;28;20154;-69
2022/08/30 05:11:32;;;;;;;12.40;10.10;;;;;;;14.89;100.00;101856.94;5221900;28;20055;-69
2022/08/30 05:14:04;;;;;;;13.32;10.77;;;;;;;14.94;100.00;101854.75;5209153;28;20761;-69
2022/08/30 05:16:35;;;;;;;12.55;10.52;;;;;;;14.96;100.00;101858.16;5196560;28;20026;-69
2022/08/30 05:19:06;;;;;;;12.18;9.57;;;;;;;14.90;100.00;101862.19;5202538;28;20067;-69
2022/08/30 05:21:39;;;;;;;12.88;10.50;;;;;;;14.98;100.00;101861.59;5201463;28;20036;-70
2022/08/30 05:24:10;;;;;;;13.70;10.27;;;;;;;14.93;100.00;101865.59;5211227;28;20022;-69
2022/08/30 05:26:42;;;;;;;11.00;9.75;;;;;;;14.96;100.00;101870.72;5201875;28;20064;-69
2022/08/30 05:29:13;;;;;;;12.30;10.43;;;;;;;15.02;100.00;101868.44;5200830;28;20042;-69
2022/08/30 05:31:44;;;;;;;14.77;10.98;;;;;;;14.93;100.00;101874.50;5210937;28;20034;-69
2022/08/30 05:34:16;;;;;;;14.45;11.02;;;;;;;15.00;100.00;101875.75;5199816;28;20030;-69
2022/08/30 05:36:47;;;;;;;12.20;10.98;;;;;;;15.09;100.00;101877.72;5207721;28;20082;-69
2022/08/30 05:39:18;;;;;;;12.50;11.10;;;;;;;15.13;100.00;101880.16;5200010;28;20568;-69
2022/08/30 05:41:49;;;;;;;12.48;10.75;;;;;;;15.15;100.00;101884.44;5210791;28;20037;-69
2022/08/30 05:44:21;;;;;;;12.57;10.98;;;;;;;15.14;100.00;101885.41;5201915;28;20121;-69
2022/08/30 05:46:52;;;;;;;13.75;10.63;;;;;;;15.20;100.00;101876.00;5200920;28;20396;-69
2022/08/30 05:49:23;;;;;;;13.43;11.13;;;;;;;15.16;100.00;101878.06;5200639;28;20137;-70
2022/08/30 05:51:55;;;;;;;13.27;11.25;;;;;;;15.12;100.00;101873.94;5196278;28;20079;-69
2022/08/30 05:54:27;;;;;;;15.35;11.70;;;;;;;15.13;100.00;101875.66;5199029;28;21302;-69
2022/08/30 05:56:58;;;;;;;13.55;11.27;;;;;;;15.17;100.00;101868.16;5202183;28;20033;-69
2022/08/30 05:59:30;;;;;;;15.02;12.13;;;;;;;15.17;100.00;101871.72;5199096;28;20109;-69
2022/08/30 06:02:01;;;;;;;16.65;12.40;;;;;;;15.18;100.00;101870.75;5201294;28;20506;-69
2022/08/30 06:04:33;;;;;;;13.23;11.80;;;;;;;15.15;100.00;101878.19;5198468;28;20055;-69
2022/08/30 06:07:04;;;;;;;13.85;12.23;;;;;;;15.25;100.00;101876.50;5194401;28;20395;-69
2022/08/30 06:09:36;;;;;;;13.23;11.82;;;;;;;15.25;100.00;101879.19;5194182;28;20041;-73
2022/08/30 06:12:07;;;;;;;13.75;12.30;;;;;;;15.36;100.00;101881.88;5210282;28;21714;-74
2022/08/30 06:14:38;;;;;;;13.20;11.90;;;;;;;15.36;100.00;101881.88;5209400;28;20058;-74
2022/08/30 06:17:10;;;;;;;13.20;11.80;;;;;;;15.39;100.00;101887.00;5208962;28;20480;-73
2022/08/30 06:19:41;;;;;;;15.50;11.95;;;;;;;15.44;100.00;101890.19;5208773;28;20059;-73
2022/08/30 06:22:12;;;;;;;13.93;12.45;;;;;;;15.48;100.00;101886.25;5208710;28;20029;-73
2022/08/30 06:24:44;;;;;;;14.10;12.40;;;;;;;15.51;100.00;101884.28;5207041;28;20026;-73
2022/08/30 06:27:15;;;;;;;13.02;11.73;;;;;;;15.57;100.00;101884.66;5212323;28;20036;-74
2022/08/30 06:29:50;;;;;;;13.25;11.40;;;;;;;15.58;100.00;101883.66;5212191;28;20022;-74
2022/08/30 06:32:22;;;;;;;16.27;12.23;;;;;;;15.60;100.00;101875.47;5215743;28;20025;-73
2022/08/30 06:34:53;;;;;;;13.93;12.40;;;;;;;15.66;100.00;101881.19;5213368;28;20029;-73
2022/08/30 06:37:25;;;;;;;16.13;12.07;;;;;;;15.65;100.00;101881.34;5213229;28;20034;-74
2022/08/30 06:39:58;;;;;;;15.77;13.75;;;;;;;15.72;100.00;101879.84;5218105;28;20100;-74
2022/08/30 06:42:32;;;;;;;14.20;12.70;;;;;;;15.76;100.00;101877.78;5218729;28;20026;-74
2022/08/30 06:45:04;;;;;;;14.38;12.93;;;;;;;15.74;100.00;101880.59;5215560;28;20468;-74
2022/08/30 06:47:35;;;;;;;13.23;11.93;;;;;;;15.83;100.00;101885.25;5213975;28;20549;-74
2022/08/30 06:50:08;;;;;;;16.30;13.15;;;;;;;15.85;100.00;101879.75;5215084;28;20073;-74
2022/08/30 06:52:41;;;;;;;13.93;12.52;;;;;;;15.85;100.00;101879.75;5211311;28;20030;-74
2022/08/30 06:55:14;;;;;;;15.30;12.93;;;;;;;15.90;100.00;101882.03;5205693;28;20026;-74
2022/08/30 06:57:46;;;;;;;14.73;13.10;;;;;;;15.93;100.00;101881.78;5202173;28;20049;-74
2022/08/30 07:00:17;;;;;;;15.65;12.35;;;;;;;16.00;100.00;101877.63;5202936;28;20428;-74
2022/08/30 07:02:48;;;;;;;15.30;12.57;;;;;;;16.06;100.00;101880.63;5204292;28;20378;-75
2022/08/30 07:05:22;;;;;;;16.08;12.77;;;;;;;16.12;100.00;101883.81;5205251;28;20032;-75
2022/08/30 07:07:53;;;;;;;13.30;11.90;;;;;;;16.24;100.00;101890.84;5211749;28;20388;-74
2022/08/30 07:10:25;;;;;;;15.90;12.80;;;;;;;16.37;100.00;101888.84;5205033;28;20041;-75
2022/08/30 07:12:56;;;;;;;12.93;11.63;;;;;;;16.48;100.00;101882.56;5212757;28;20389;-74
2022/08/30 07:15:27;;;;;;;12.43;10.95;;;;;;;16.61;100.00;101882.38;5207388;28;20117;-74
2022/08/30 07:20:49;;;;;;;11.13;9.93;;;;;;;16.97;100.00;101885.56;5209143;28;20038;-74
2022/08/30 07:23:21;;;;;;;11.52;10.38;;;;;;;17.07;100.00;101896.41;5207440;28;20026;-74
2022/08/30 07:25:52;;;;;;;17.00;10.00;;;;;;;17.22;100.00;101892.34;5207949;28;20059;-74
2022/08/30 07:28:23;;;;;;;12.13;10.02;;;;;;;17.30;100.00;101897.09;5205351;28;20044;-74
2022/08/30 07:30:55;;;;;;;12.13;9.70;;;;;;;17.33;100.00;101903.06;5209186;28;20069;-74
2022/08/30 07:33:26;;;;;;;10.88;9.77;;;;;;;17.35;100.00;101895.69;5205933;28;20399;-74
2022/08/30 07:35:58;;;;;;;12.80;9.93;;;;;;;17.40;99.19;101898.00;5209551;28;20793;-74
2022/08/30 07:38:30;;;;;;;10.70;9.60;;;;;;;17.43;98.42;101897.69;5207775;28;20480;-74
2022/08/30 07:41:02;;;;;;;10.88;9.70;;;;;;;17.46;97.97;101897.44;5207063;28;20075;-74
2022/08/30 07:43:36;;;;;;;11.57;9.77;;;;;;;17.46;97.78;101896.59;5204687;28;20117;-74
2022/08/30 07:46:07;;;;;;;11.60;9.35;;;;;;;17.55;97.40;101896.63;5198864;28;20145;-74
2022/08/30 07:48:38;;;;;;;10.23;9.23;;;;;;;17.66;97.46;101898.38;5201519;28;20441;-74
2022/08/30 07:51:12;;;;;;;12.90;9.15;;;;;;;17.78;96.42;101897.25;5211105;28;20038;-74
2022/08/30 07:53:44;;;;;;;12.75;9.32;;;;;;;17.88;95.81;101897.28;5201434;28;20083;-74
2022/08/30 07:56:15;;;;;;;10.10;8.93;;;;;;;17.95;96.17;101890.34;5205182;28;20479;-75
2022/08/30 07:58:47;;;;;;;10.15;8.68;;;;;;;18.02;94.54;101902.31;5200207;28;20033;-75
2022/08/30 08:01:20;;;;;;;9.77;8.77;;;;;;;18.08;94.84;101903.56;5200582;28;20822;-71
2022/08/30 08:03:51;;;;;;;11.15;8.77;;;;;;;18.22;94.16;101895.06;5200420;28;20037;-74
2022/08/30 08:06:23;;;;;;;11.02;8.70;;;;;;;18.31;95.44;101903.28;5210617;28;20034;-74
2022/08/30 08:08:56;;;;;;;10.23;8.60;;;;;;;18.38;94.11;101907.16;5209265;28;20188;-75
2022/08/30 08:11:28;;;;;;;12.32;9.13;;;;;;;18.51;93.41;101904.16;5209229;28;20032;-75
2022/08/30 08:14:00;;;;;;;9.80;8.30;;;;;;;18.53;91.28;101902.16;5208771;28;20475;-74
2022/08/30 08:16:33;;;;;;;10.55;8.57;;;;;;;18.61;91.81;101905.84;5203659;28;20030;-74
2022/08/30 08:19:07;;;;;;;10.75;8.23;;;;;;;18.66;91.22;101912.66;5202745;28;20042;-73
2022/08/30 08:21:39;;;;;;;10.82;8.52;;;;;;;18.83;90.20;101906.56;5206516;28;20533;-74
2022/08/30 08:24:10;;;;;;;12.85;8.02;;;;;;;18.80;90.99;101907.69;5206908;28;20068;-74
2022/08/30 08:26:42;;;;;;;9.75;8.38;;;;;;;18.86;89.47;101913.53;5208217;28;20376;-74
2022/08/30 08:29:13;;;;;;;9.23;7.90;;;;;;;18.93;89.74;101914.66;5208453;28;20034;-74
2022/08/30 08:31:45;;;;;;;13.45;8.05;;;;;;;18.86;89.40;101910.81;5206090;28;20033;-75
2022/08/30 08:34:18;;;;;;;11.05;7.63;;;;;;;18.97;90.43;101919.63;5209028;28;20166;-74
2022/08/30 08:36:50;;;;;;;9.48;7.22;;;;;;;19.15;88.33;101913.44;5209560;28;20014;-74
2022/08/30 08:39:21;;;;;;;8.07;7.28;;;;;;;19.18;87.98;101918.56;5206464;28;20120;-73
2022/08/30 08:42:12;;;;;;;9.10;7.10;;;;;;;19.35;87.36;101920.50;5210321;28;20658;-74
2022/08/30 08:44:53;;;;;;;9.35;6.80;;;;;;;19.46;85.28;101921.28;5212501;28;20026;-73
2022/08/30 08:47:39;;;;;;;8.02;6.68;;;;;;;19.57;87.52;101923.81;5206642;28;20488;-73
2022/08/30 08:50:16;;;;;;;8.07;6.43;;;;;;;19.68;83.87;101925.47;5201861;28;20042;-74
2022/08/30 08:55:49;;;;;;;8.98;5.80;;;;;;;19.92;81.62;101927.63;5206370;28;20030;-73
2022/08/30 08:58:24;;;;;;;9.57;5.68;;;;;;;20.04;82.94;101921.00;5204257;28;20038;-73
2022/08/30 09:00:57;;;;;;;9.15;5.63;;;;;;;20.12;82.49;101923.78;5204703;28;20038;-73
2022/08/30 09:03:29;;;;;;;11.05;5.68;;;;;;;20.23;81.35;101924.56;5211281;28;20109;-73
2022/08/30 09:06:05;;;;;;;7.85;5.40;;;;;;;20.32;79.57;101916.34;5209956;28;20448;-72
2022/08/30 09:08:36;;;;;;;5.53;4.55;;;;;;;20.40;81.56;101915.56;5209095;28;20407;-73
2022/08/30 09:11:15;;;;;;;6.10;4.43;;;;;;;20.49;80.46;101925.47;5207493;28;20325;-73
2022/08/30 09:13:46;;;;;;;6.65;4.70;;;;;;;20.62;80.22;101918.84;5207857;28;20120;-73
2022/08/30 09:16:55;;;;;;;8.25;4.88;;;;;;;20.78;80.24;101923.53;5204618;28;20112;-73
2022/08/30 09:19:29;;;;;;;7.25;4.95;;;;;;;20.78;76.05;101910.81;5209717;28;20052;-73
2022/08/30 09:22:35;;;;;;;6.65;4.68;;;;;;;20.87;77.30;101922.59;5210131;28;20440;-73
2022/08/30 09:25:08;;;;;;;6.90;4.57;;;;;;;20.84;75.41;101917.47;5206716;28;20472;-73
2022/08/30 09:27:42;;;;;;;10.10;4.70;;;;;;;21.01;75.57;101918.44;5228567;28;20042;-68
2022/08/30 09:30:27;;;;;;;6.68;4.55;;;;;;;21.05;74.09;101917.13;5210311;28;20296;-68
2022/08/30 09:33:04;;;;;;;7.78;3.50;;;;;;;21.18;75.95;101916.69;5209229;28;20042;-68
2022/08/30 09:35:45;;;;;;;5.10;2.80;;;;;;;21.30;73.74;101913.50;5203960;28;20025;-68
2022/08/30 09:38:21;;;;;;;4.85;2.67;;;;;;;21.38;72.75;101911.84;5210301;28;20497;-68
2022/08/30 09:40:55;;;;;;;5.70;2.70;;;;;;;21.36;72.20;101914.72;5209485;28;20030;-68
2022/08/30 09:43:30;;;;;;;5.60;2.63;;;;;;;21.51;72.75;101915.84;5203946;28;20026;-68
2022/08/30 09:46:02;;;;;;;6.05;2.75;;;;;;;21.51;71.40;101909.56;5206703;28;20113;-68
2022/08/30 09:48:43;;;;;;;4.78;3.00;;;;;;;21.57;71.17;101916.22;5205312;28;20492;-68
2022/08/30 09:51:37;;;;;;;3.92;2.45;;;;;;;21.62;71.68;101911.16;5206209;28;20037;-68
2022/08/30 09:54:11;;;;;;;6.07;2.58;;;;;;;21.77;68.30;101912.22;5206270;28;20083;-68
2022/08/30 09:56:55;;;;;;;4.32;2.30;;;;;;;21.73;69.62;101919.00;5210460;28;20030;-69
2022/08/30 09:59:39;;;;;;;3.70;2.42;;;;;;;21.75;70.01;101916.97;5207642;28;20065;-68
2022/08/30 10:02:33;;;;;;;5.90;2.55;;;;;;;21.72;69.83;101914.56;5215645;28;20087;-68
2022/08/30 10:05:41;;;;;;;6.38;2.42;;;;;;;21.78;72.37;101913.06;5211687;28;20453;-67
2022/08/30 10:08:32;;;;;;;4.82;2.50;;;;;;;21.85;69.98;101914.97;5215929;28;20238;-67
2022/08/30 10:11:19;;;;;;;3.92;1.95;;;;;;;21.93;69.50;101908.69;5216038;28;20043;-67
2022/08/30 10:14:12;;;;;;;4.88;2.00;;;;;;;22.06;70.14;101914.50;5216000;28;20033;-67
2022/08/30 10:17:06;;;;;;;5.25;1.80;;;;;;;22.07;67.76;101912.63;5215937;28;20025;-68
2022/08/30 10:19:57;;;;;;;5.00;2.53;;;;;;;22.10;66.15;101913.13;5207752;28;20659;-67
2022/08/30 10:23:09;;;;;;;4.50;2.03;;;;;;;22.19;68.81;101907.72;5206577;28;20483;-67
2022/08/30 10:25:49;;;;;;;8.80;2.30;;;;;;;22.17;68.14;101905.19;5183288;28;20041;-67
2022/08/30 10:28:44;;;;;;;4.07;2.15;;;;;;;22.25;66.19;101910.66;5212022;28;20045;-67
2022/08/30 10:31:32;;;;;;;6.25;2.40;;;;;;;22.22;66.79;101900.06;5212141;28;20501;-68
2022/08/30 10:34:13;;;;;;;6.85;2.13;;;;;;;22.33;63.94;101909.81;5211555;28;20038;-68
2022/08/30 10:36:57;;;;;;;3.85;1.90;;;;;;;22.38;64.66;101912.88;5211045;28;20022;-68
2022/08/30 10:39:36;;;;;;;6.78;2.03;;;;;;;22.38;65.11;101907.44;5216033;28;20048;-68
2022/08/30 10:42:16;;;;;;;9.50;2.30;;;;;;;22.46;64.30;101903.88;5213700;28;20026;-68
2022/08/30 10:44:58;;;;;;;4.90;1.98;;;;;;;22.49;64.39;101898.94;5212539;28;20498;-68
2022/08/30 10:47:36;;;;;;;4.97;2.10;;;;;;;22.59;63.20;101900.63;5213567;28;20455;-68
2022/08/30 10:50:21;;;;;;;5.30;2.13;;;;;;;22.69;64.55;101904.03;5213859;28;20520;-68
2022/08/30 10:53:15;;;;;;;3.78;1.88;;;;;;;22.75;65.23;101905.22;5211257;28;20441;-68
2022/08/30 10:56:05;;;;;;;5.22;1.90;;;;;;;22.74;66.65;101888.03;5211766;28;20079;-68
2022/08/30 10:58:41;;;;;;;7.07;2.25;;;;;;;22.79;60.76;101893.81;5214965;28;20069;-68
2022/08/30 11:01:27;;;;;;;5.15;2.20;;;;;;;22.81;61.23;101894.47;5211111;28;20859;-68
2022/08/30 11:04:36;;;;;;;6.13;2.28;;;;;;;22.77;62.03;101901.28;5211008;28;20040;-69
2022/08/30 11:07:31;;;;;;;5.35;1.90;;;;;;;22.87;61.83;101896.50;5210950;28;20069;-68
2022/08/30 11:10:31;;;;;;;5.32;2.28;;;;;;;22.96;62.07;101897.34;5212055;28;20149;-68
2022/08/30 11:13:25;;;;;;;4.68;1.80;;;;;;;23.05;63.31;101887.31;5208065;28;20041;-68
2022/08/30 11:16:06;;;;;;;6.18;2.25;;;;;;;23.08;62.02;101897.84;5223040;28;20056;-68
2022/08/30 11:18:52;;;;;;;5.05;1.83;;;;;;;23.22;60.64;101886.25;5210073;28;20041;-69
2022/08/30 11:21:30;;;;;;;3.13;1.80;;;;;;;23.22;61.66;101897.16;5207992;28;20379;-68
2022/08/30 11:24:04;;;;;;;3.67;1.65;;;;;;;23.21;60.90;101898.16;5214054;28;20033;-68
2022/08/30 11:26:44;;;;;;;5.30;2.10;;;;;;;23.40;58.96;101898.78;5208093;28;20415;-68
2022/08/30 11:29:25;;;;;;;6.18;2.33;;;;;;;23.33;59.99;101895.06;5214064;28;20030;-69
2022/08/30 11:31:58;;;;;;;7.70;2.17;;;;;;;23.27;58.33;101897.44;5209608;28;20395;-68
2022/08/30 11:34:48;;;;;;;;;;;;;;;23.43;61.62;101895.69;5210344;28;20026;-69
2022/08/30 11:37:37;;;;;;;5.63;1.90;;;;;;;23.35;59.44;101893.00;5213419;28;19974;-69
2022/08/30 11:40:23;;;;;;;5.45;2.00;;;;;;;23.33;59.67;101897.78;5209476;28;20121;-69
2022/08/30 11:42:55;;;;;;;4.07;1.98;;;;;;;23.29;57.18;101889.94;5211639;28;20030;-68
2022/08/30 11:45:26;;;;;;;3.85;1.73;;;;;;;23.31;59.55;101881.63;5210929;28;20025;-68
2022/08/30 11:48:08;;;;;;;4.97;1.80;;;;;;;23.38;61.65;101876.31;5205257;28;20517;-70
2022/08/30 11:51:15;;;;;;;3.80;1.92;;;;;;;23.47;59.80;101884.28;5208477;28;20061;-70
2022/08/30 11:54:17;;;;;;;4.45;1.75;;;;;;;23.62;59.47;101883.50;5198209;28;20132;-70
2022/08/30 11:56:48;;;;;;;5.25;1.60;;;;;;;23.51;57.77;101873.00;5207523;28;20325;-70